Уфа

Карта отелей и гостиниц, располагающихся рядом с аэропортом Уфа :

Уфа Башкортостан 54° 33' 23.94" N, 55° 52' 30" E
Код аэродрома ИКАО
UWUU
Код аэродрома RU
УВУУ
Координаты
N54.55665° E055.87500°
Превышение над уровнем моря
137
Основная полоса
14R/32L
Курс магнитный
137,9/317,9
Длина основной ВПП
3776
Ширина основной ВПП
60
Покрытие основной ВПП
Твёрдое
Освещение ВПП
Постоянное
Тип: 
Аэродром
Класс аэродрома: 
Международный
Принадлежность: 
ГА
Статус: 
Действующий
Сайт: 
http://www.airportufa.ru/
Страна: 
Россия
Регион: 
Башкортостан
Дополнительная информация: 
Оператор: ОАО «Международный аэропорт «Уфа». Нкр.=(300/500/600)м.
Погода: 

Авиационная погода в Уфе

Регион: 
Погода METAR: 
UWUU 241400Z 21005MPS 9999 BKN050CB 05/03 Q1011 R32L/290146 TEMPO 25011G18MPS 1000 SHRA BKN006CB
Время наблюдения
2021-10-24T14:00:00Z
Температура C
5.0
Точка росы
3.0
Направление ветра
210
Скорость ветра (узлы)
10
Метео видимость
6.21
Явления погоды
Условия полета
VFR
Аэропорт подробнее: 

Найти трансфер

С помощью этой формы Вы можете найти трансфер из аэропорта Уфа в город, аэропорт или вокзал:

Карта места

Javascript is required to view this map.

Погода в аэропортах:

Авиационная погода в Чимкенте

Регион: 
Погода METAR: 
UAII 241500Z 00000MPS 5000 FU NSC 11/02 Q1017 R28/0///70 NOSIG RMK QFE726/0968
Время наблюдения
2021-10-24T15:00:00Z
Температура C
11.0
Точка росы
2.0
Направление ветра
0
Скорость ветра (узлы)
0
Метео видимость
3.11
Явления погоды
FU
Условия полета
MVFR
Аэропорт подробнее: 

Авиационная погода в Стамбуле

Регион: 
Погода METAR: 
LTFM 241350Z 03020KT 9999 -SHRA SCT012 BKN025 13/09 Q1028 NOSIG RMK RWY17L 03019KT RWY34L 02017KT RWY16R 03019KT RWY36 03019KT RWY18 03016KT
Время наблюдения
2021-10-24T13:50:00Z
Температура C
13.0
Точка росы
9.0
Направление ветра
30
Скорость ветра (узлы)
20
Метео видимость
6.21
Явления погоды
-SHRA
Условия полета
MVFR

Авиационная погода в Краснодаре

Регион: 
Погода METAR: 
URKK 241400Z 34005MPS 9000 -SHRA FEW012 BKN035CB 09/08 Q1022 R05R/290060 TEMPO 0500 +TSRA SCT005 BKN020CB RMK QFE763
Время наблюдения
2021-10-24T14:00:00Z
Температура C
9.0
Точка росы
8.0
Направление ветра
340
Скорость ветра (узлы)
10
Метео видимость
5.59
Явления погоды
-SHRA
Условия полета
VFR
Аэропорт подробнее: 

Авиационная погода в аэропорту Алыкель

Регион: 
Погода METAR: 
UOOO 241400Z 04006MPS 4100 -SN BR SCT030 M04/M04 Q0987 R01/491048 NOSIG RMK QFE726/0968
Время наблюдения
2021-10-24T14:00:00Z
Температура C
-4.0
Точка росы
-4.0
Направление ветра
40
Скорость ветра (узлы)
12
Метео видимость
2.55
Явления погоды
-SN BR
Условия полета
IFR
Аэропорт подробнее: